createdAt,value
2022-09-03T00:00:43.947Z,8.12
2022-09-03T00:01:43.988Z,8.19
2022-09-03T00:02:43.984Z,8.16
2022-09-03T00:03:43.934Z,8.15
2022-09-03T00:04:43.890Z,8.18
2022-09-03T00:05:43.947Z,8.18
2022-09-03T00:06:43.905Z,8.19
2022-09-03T00:07:43.861Z,8.15
2022-09-03T00:08:43.917Z,8.11
2022-09-03T00:09:43.947Z,8.01
2022-09-03T00:10:43.866Z,8.10
2022-09-03T00:11:43.814Z,8.12
2022-09-03T00:12:43.853Z,8.08
2022-09-03T00:13:43.905Z,8.12
2022-09-03T00:14:43.806Z,8.05
2022-09-03T00:15:43.895Z,8.05
2022-09-03T00:16:43.771Z,8.12
2022-09-03T00:17:43.758Z,8.11
2022-09-03T00:18:43.804Z,8.11
2022-09-03T00:19:43.755Z,8.08
2022-09-03T00:20:43.734Z,7.97
2022-09-03T00:21:43.693Z,8.00
2022-09-03T00:22:43.703Z,8.00
2022-09-03T00:23:43.698Z,7.95
2022-09-03T00:24:43.681Z,7.92
2022-09-03T00:25:43.642Z,8.01
2022-09-03T00:26:43.627Z,7.93
2022-09-03T00:27:43.626Z,7.97
2022-09-03T00:28:43.649Z,8.00
2022-09-03T00:29:43.588Z,8.02
2022-09-03T00:30:43.613Z,7.97
2022-09-03T00:31:43.609Z,8.00
2022-09-03T00:32:43.630Z,7.92
2022-09-03T00:33:43.625Z,7.87
2022-09-03T00:34:43.636Z,7.92
2022-09-03T00:35:43.579Z,8.01
2022-09-03T00:36:43.563Z,7.90
2022-09-03T00:37:43.500Z,7.89
2022-09-03T00:38:43.499Z,7.83
2022-09-03T00:39:43.614Z,7.95
2022-09-03T00:40:43.493Z,7.87
2022-09-03T00:41:43.444Z,7.87
2022-09-03T00:42:43.442Z,7.89
2022-09-03T00:43:43.477Z,7.89
2022-09-03T00:44:43.443Z,7.87
2022-09-03T00:45:43.425Z,7.89
2022-09-03T00:46:43.461Z,7.90
2022-09-03T00:47:43.372Z,7.89
2022-09-03T00:48:43.372Z,7.83
2022-09-03T00:49:43.351Z,7.89
2022-09-03T00:50:43.365Z,7.89
2022-09-03T00:51:43.342Z,7.89
2022-09-03T00:52:43.351Z,7.89
2022-09-03T00:53:44.179Z,7.87
2022-09-03T00:54:43.292Z,7.86
2022-09-03T00:55:43.329Z,7.82
2022-09-03T00:56:43.428Z,7.77
2022-09-03T00:57:51.475Z,7.77
2022-09-03T00:58:43.433Z,7.79
2022-09-03T00:59:43.401Z,7.83
2022-09-03T01:00:43.302Z,7.80
2022-09-03T01:01:43.542Z,7.83
2022-09-03T01:02:43.377Z,7.77
2022-09-03T01:03:43.195Z,7.68
2022-09-03T01:04:43.181Z,7.82
2022-09-03T01:05:43.162Z,7.67
2022-09-03T01:06:43.201Z,7.75
2022-09-03T01:07:43.141Z,7.72
2022-09-03T01:08:44.014Z,7.74
2022-09-03T01:09:43.153Z,7.69
2022-09-03T01:10:43.103Z,7.72
2022-09-03T01:11:43.097Z,7.69
2022-09-03T01:12:43.102Z,7.77
2022-09-03T01:13:43.074Z,7.68
2022-09-03T01:14:43.065Z,7.79
2022-09-03T01:15:43.097Z,7.82
2022-09-03T01:16:43.045Z,7.68
2022-09-03T01:17:43.076Z,7.83
2022-09-03T01:18:43.024Z,7.68
2022-09-03T01:19:43.038Z,7.67
2022-09-03T01:20:42.997Z,7.77
2022-09-03T01:21:42.992Z,7.69
2022-09-03T01:22:43.005Z,7.77
2022-09-03T01:23:42.969Z,7.68
2022-09-03T01:24:42.943Z,7.74
2022-09-03T01:25:42.928Z,7.67
2022-09-03T01:26:42.971Z,7.71
2022-09-03T01:27:42.931Z,7.64
2022-09-03T01:28:42.922Z,7.71
2022-09-03T01:29:42.885Z,7.72
2022-09-03T01:30:42.956Z,7.63
2022-09-03T01:31:42.907Z,7.61
2022-09-03T01:32:42.850Z,7.71
2022-09-03T01:33:42.867Z,7.63
2022-09-03T01:34:42.854Z,7.69
2022-09-03T01:35:42.816Z,7.57
2022-09-03T01:36:42.813Z,7.69
2022-09-03T01:37:42.790Z,7.64
2022-09-03T01:38:42.779Z,7.57
2022-09-03T01:39:42.872Z,7.50
2022-09-03T01:40:42.767Z,7.64
2022-09-03T01:41:42.846Z,7.55
2022-09-03T01:42:42.737Z,7.61
2022-09-03T01:43:45.402Z,7.63
2022-09-03T01:44:42.736Z,7.55
2022-09-03T01:45:50.180Z,7.61
2022-09-03T01:46:43.758Z,7.60
2022-09-03T01:47:42.676Z,7.61
2022-09-03T01:48:42.666Z,7.50
2022-09-03T01:49:42.652Z,7.55
2022-09-03T01:50:42.669Z,7.53
2022-09-03T01:51:42.656Z,7.55
2022-09-03T01:52:42.623Z,7.63
2022-09-03T01:53:42.611Z,7.46
2022-09-03T01:54:42.597Z,7.55
2022-09-03T01:55:42.637Z,7.49
2022-09-03T01:56:42.650Z,7.52
2022-09-03T01:57:42.563Z,7.53
2022-09-03T01:58:42.558Z,7.52
2022-09-03T01:59:42.542Z,7.50
2022-09-03T02:00:42.523Z,7.53
2022-09-03T02:01:42.580Z,7.52
2022-09-03T02:02:42.536Z,7.48
2022-09-03T02:03:42.496Z,7.52
2022-09-03T02:04:42.487Z,7.53
2022-09-03T02:05:42.472Z,7.48
2022-09-03T02:06:42.478Z,7.42
2022-09-03T02:07:42.474Z,7.42
2022-09-03T02:08:42.435Z,7.48
2022-09-03T02:09:42.419Z,7.43
2022-09-03T02:10:42.411Z,7.37
2022-09-03T02:11:42.399Z,7.40
2022-09-03T02:12:42.465Z,7.48
2022-09-03T02:13:42.406Z,7.45
2022-09-03T02:14:42.364Z,7.46
2022-09-03T02:15:42.411Z,7.42
2022-09-03T02:16:42.374Z,7.37
2022-09-03T02:17:42.325Z,7.42
2022-09-03T02:18:42.340Z,7.37
2022-09-03T02:19:42.352Z,7.39
2022-09-03T02:20:42.294Z,7.43
2022-09-03T02:21:42.278Z,7.39
2022-09-03T02:22:42.273Z,7.37
2022-09-03T02:23:42.356Z,7.35
2022-09-03T02:24:42.248Z,7.32
2022-09-03T02:25:42.257Z,7.28
2022-09-03T02:26:42.246Z,7.31
2022-09-03T02:27:42.210Z,7.37
2022-09-03T02:28:42.219Z,7.32
2022-09-03T02:29:42.191Z,7.31
2022-09-03T02:30:42.199Z,7.28
2022-09-03T02:31:42.196Z,7.34
2022-09-03T02:32:42.186Z,7.30
2022-09-03T02:33:42.175Z,7.21
2022-09-03T02:34:42.382Z,7.24
2022-09-03T02:35:42.128Z,7.27
2022-09-03T02:36:42.109Z,7.21
2022-09-03T02:37:42.099Z,7.24
2022-09-03T02:38:42.146Z,7.25
2022-09-03T02:39:42.131Z,7.28
2022-09-03T02:40:42.067Z,7.20
2022-09-03T02:41:42.059Z,7.12
2022-09-03T02:42:42.049Z,7.12
2022-09-03T02:43:42.059Z,7.12
2022-09-03T02:44:42.041Z,7.15
2022-09-03T02:45:42.104Z,7.12
2022-09-03T02:46:42.017Z,7.13
2022-09-03T02:47:42.009Z,7.13
2022-09-03T02:48:41.988Z,7.12
2022-09-03T02:49:41.990Z,7.13
2022-09-03T02:50:41.951Z,7.07
2022-09-03T02:51:41.971Z,7.09
2022-09-03T02:52:42.022Z,7.09
2022-09-03T02:53:41.910Z,7.09
2022-09-03T02:54:41.946Z,7.06
2022-09-03T02:55:41.898Z,7.09
2022-09-03T02:56:41.902Z,7.07
2022-09-03T02:57:41.874Z,7.10
2022-09-03T02:58:41.858Z,7.10
2022-09-03T02:59:41.864Z,7.07
2022-09-03T03:00:41.859Z,7.06
2022-09-03T03:01:41.917Z,7.05
2022-09-03T03:02:41.961Z,7.09
2022-09-03T03:03:41.855Z,7.07
2022-09-03T03:04:41.815Z,7.09
2022-09-03T03:05:41.816Z,6.99
2022-09-03T03:06:41.778Z,7.02
2022-09-03T03:07:41.769Z,7.07
2022-09-03T03:08:41.774Z,7.06
2022-09-03T03:09:41.726Z,7.03
2022-09-03T03:10:41.736Z,7.05
2022-09-03T03:11:41.821Z,7.05
2022-09-03T03:12:41.716Z,7.12
2022-09-03T03:13:41.681Z,7.10
2022-09-03T03:14:41.669Z,7.09
2022-09-03T03:15:41.661Z,7.07
2022-09-03T03:16:41.845Z,6.95
2022-09-03T03:17:41.635Z,6.94
2022-09-03T03:18:41.625Z,6.99
2022-09-03T03:19:41.630Z,6.89
2022-09-03T03:20:41.618Z,6.92
2022-09-03T03:21:41.614Z,6.94
2022-09-03T03:22:41.642Z,6.97
2022-09-03T03:23:41.579Z,6.91
2022-09-03T03:24:41.567Z,6.89
2022-09-03T03:25:41.544Z,6.91
2022-09-03T03:26:41.576Z,6.87
2022-09-03T03:27:41.521Z,6.80
2022-09-03T03:28:41.542Z,6.87
2022-09-03T03:29:41.579Z,6.84
2022-09-03T03:30:41.552Z,6.91
2022-09-03T03:31:41.471Z,6.77
2022-09-03T03:32:41.504Z,6.88
2022-09-03T03:33:41.451Z,6.77
2022-09-03T03:34:41.498Z,6.84
2022-09-03T03:35:41.428Z,6.79
2022-09-03T03:36:41.417Z,6.85
2022-09-03T03:37:41.427Z,6.81
2022-09-03T03:38:41.397Z,6.87
2022-09-03T03:39:41.476Z,6.84
2022-09-03T03:40:50.614Z,6.79
2022-09-03T03:41:41.499Z,6.80
2022-09-03T03:42:41.483Z,6.80
2022-09-03T03:43:41.501Z,6.77
2022-09-03T03:44:41.367Z,6.76
2022-09-03T03:45:41.386Z,6.70
2022-09-03T03:46:41.374Z,6.76
2022-09-03T03:47:41.304Z,6.73
2022-09-03T03:48:41.377Z,6.70
2022-09-03T03:49:41.273Z,6.73
2022-09-03T03:50:41.282Z,6.71
2022-09-03T03:51:41.291Z,6.71
2022-09-03T03:52:41.370Z,6.67
2022-09-03T03:53:41.291Z,6.66
2022-09-03T03:54:41.221Z,6.59
2022-09-03T03:55:41.218Z,6.61
2022-09-03T03:56:41.234Z,6.64
2022-09-03T03:57:41.180Z,6.69
2022-09-03T03:58:41.178Z,6.61
2022-09-03T03:59:41.191Z,6.54
2022-09-03T04:00:41.175Z,6.58
2022-09-03T04:01:41.207Z,6.61
2022-09-03T04:02:41.196Z,6.69
2022-09-03T04:03:41.120Z,6.67
2022-09-03T04:04:41.096Z,6.58
2022-09-03T04:05:43.902Z,6.56
2022-09-03T04:06:42.115Z,6.61
2022-09-03T04:07:41.086Z,6.69
2022-09-03T04:08:41.075Z,6.61
2022-09-03T04:09:41.074Z,6.66
2022-09-03T04:10:41.037Z,6.55
2022-09-03T04:11:41.054Z,6.55
2022-09-03T04:12:41.014Z,6.52
2022-09-03T04:13:41.049Z,6.55
2022-09-03T04:14:40.983Z,6.43
2022-09-03T04:15:42.478Z,6.46
2022-09-03T04:16:41.073Z,6.44
2022-09-03T04:17:40.970Z,6.48
2022-09-03T04:18:40.951Z,6.44
2022-09-03T04:19:40.938Z,6.41
2022-09-03T04:20:40.937Z,6.44
2022-09-03T04:21:40.912Z,6.48
2022-09-03T04:22:40.944Z,6.44
2022-09-03T04:23:40.904Z,6.44
2022-09-03T04:24:40.900Z,6.46
2022-09-03T04:25:40.867Z,6.43
2022-09-03T04:26:40.857Z,6.43
2022-09-03T04:27:40.905Z,6.46
2022-09-03T04:28:40.897Z,6.41
2022-09-03T04:29:40.832Z,6.48
2022-09-03T04:30:40.908Z,6.49
2022-09-03T04:31:40.814Z,6.58
2022-09-03T04:32:40.810Z,6.55
2022-09-03T04:33:40.776Z,6.54
2022-09-03T04:34:40.815Z,6.48
2022-09-03T04:35:40.786Z,6.41
2022-09-03T04:36:40.753Z,6.48
2022-09-03T04:37:40.733Z,6.51
2022-09-03T04:38:40.778Z,6.46
2022-09-03T04:39:40.785Z,6.51
2022-09-03T04:40:40.698Z,6.49
2022-09-03T04:41:40.716Z,6.44
2022-09-03T04:42:40.696Z,6.49
2022-09-03T04:43:40.719Z,6.41
2022-09-03T04:44:40.675Z,6.46
2022-09-03T04:45:40.658Z,6.41
2022-09-03T04:46:40.671Z,6.49
2022-09-03T04:47:40.634Z,6.51
2022-09-03T04:48:40.629Z,6.51
2022-09-03T04:49:40.645Z,6.52
2022-09-03T04:50:40.632Z,6.48
2022-09-03T04:51:40.593Z,6.51
2022-09-03T04:52:40.564Z,6.49
2022-09-03T04:53:40.548Z,6.48
2022-09-03T04:54:40.557Z,6.55
2022-09-03T04:55:40.553Z,6.52
2022-09-03T04:56:40.529Z,6.55
2022-09-03T04:57:40.509Z,6.55
2022-09-03T04:58:40.506Z,6.61
2022-09-03T04:59:40.480Z,6.55
2022-09-03T05:00:40.489Z,6.59
2022-09-03T05:01:40.481Z,6.66
2022-09-03T05:02:40.511Z,6.67
2022-09-03T05:03:40.432Z,6.64
2022-09-03T05:04:40.449Z,6.67
2022-09-03T05:05:40.409Z,6.59
2022-09-03T05:06:40.417Z,6.66
2022-09-03T05:07:40.385Z,6.73
2022-09-03T05:08:40.433Z,6.71
2022-09-03T05:09:40.383Z,6.84
2022-09-03T05:10:40.351Z,6.79
2022-09-03T05:11:40.362Z,6.84
2022-09-03T05:12:40.326Z,6.87
2022-09-03T05:13:40.339Z,6.94
2022-09-03T05:14:40.309Z,6.95
2022-09-03T05:15:40.292Z,6.98
2022-09-03T05:16:40.367Z,7.03
2022-09-03T05:17:40.301Z,7.03
2022-09-03T05:18:40.391Z,6.95
2022-09-03T05:19:40.250Z,6.95
2022-09-03T05:20:40.384Z,7.06
2022-09-03T05:21:40.245Z,7.06
2022-09-03T05:22:40.215Z,7.12
2022-09-03T05:23:40.218Z,7.10
2022-09-03T05:24:40.184Z,7.15
2022-09-03T05:25:40.201Z,7.20
2022-09-03T05:26:40.184Z,7.24
2022-09-03T05:27:40.215Z,7.35
2022-09-03T05:28:40.149Z,7.42
2022-09-03T05:29:40.125Z,7.50
2022-09-03T05:30:40.139Z,7.53
2022-09-03T05:31:40.321Z,7.61
2022-09-03T05:32:40.105Z,7.52
2022-09-03T05:33:40.083Z,7.58
2022-09-03T05:34:40.097Z,7.58
2022-09-03T05:35:40.086Z,7.68
2022-09-03T05:36:40.046Z,7.68
2022-09-03T05:37:40.056Z,7.67
2022-09-03T05:38:40.023Z,7.74
2022-09-03T05:39:40.098Z,7.74
2022-09-03T05:40:40.002Z,7.82
2022-09-03T05:41:40.027Z,7.82
2022-09-03T05:42:39.997Z,7.83
2022-09-03T05:43:39.988Z,7.79
2022-09-03T05:44:39.959Z,7.87
2022-09-03T05:45:40.016Z,7.92
2022-09-03T05:46:39.952Z,7.93
2022-09-03T05:47:39.917Z,7.93
2022-09-03T05:48:39.918Z,8.04
2022-09-03T05:49:39.899Z,8.12
2022-09-03T05:50:39.885Z,8.11
2022-09-03T05:51:39.894Z,8.16
2022-09-03T05:52:39.898Z,8.23
2022-09-03T05:53:39.848Z,8.30
2022-09-03T05:54:39.873Z,8.33
2022-09-03T05:55:39.849Z,8.40
2022-09-03T05:56:39.816Z,8.43
2022-09-03T05:57:39.801Z,8.58
2022-09-03T05:58:39.811Z,8.63
2022-09-03T05:59:39.779Z,8.70
2022-09-03T06:00:39.805Z,8.74
2022-09-03T06:01:39.831Z,8.84
2022-09-03T06:02:39.930Z,8.81
2022-09-03T06:03:39.883Z,8.89
2022-09-03T06:04:39.726Z,9.02
2022-09-03T06:05:39.711Z,9.35
2022-09-03T06:06:39.716Z,10.11
2022-09-03T06:07:39.689Z,10.99
2022-09-03T06:08:39.678Z,11.83
2022-09-03T06:09:39.683Z,12.64
2022-09-03T06:10:41.157Z,13.25
2022-09-03T06:11:39.659Z,13.95
2022-09-03T06:12:39.646Z,14.62
2022-09-03T06:13:39.619Z,15.28
2022-09-03T06:14:39.629Z,16.02
2022-09-03T06:15:39.593Z,16.56
2022-09-03T06:16:39.794Z,17.26
2022-09-03T06:17:39.572Z,17.70
2022-09-03T06:18:39.572Z,18.14
2022-09-03T06:19:39.553Z,18.70
2022-09-03T06:20:39.542Z,18.94
2022-09-03T06:21:39.564Z,18.94
2022-09-03T06:22:39.522Z,19.02
2022-09-03T06:23:39.507Z,19.37
2022-09-03T06:24:40.520Z,19.65
2022-09-03T06:25:39.489Z,20.14
2022-09-03T06:26:39.492Z,20.70
2022-09-03T06:27:39.490Z,21.07
2022-09-03T06:28:39.476Z,21.35
2022-09-03T06:29:39.456Z,21.40
2022-09-03T06:30:39.439Z,21.32
2022-09-03T06:32:09.866Z,21.09
2022-09-03T06:32:40.682Z,21.13
2022-09-03T06:33:39.397Z,21.07
2022-09-03T06:34:39.407Z,21.25
2022-09-03T06:35:42.891Z,21.54
2022-09-03T06:36:39.362Z,21.94
2022-09-03T06:37:39.433Z,22.05
2022-09-03T06:38:39.339Z,22.10
2022-09-03T06:39:39.452Z,21.47
2022-09-03T06:40:39.317Z,21.10
2022-09-03T06:41:39.307Z,21.40
2022-09-03T06:42:39.544Z,21.75
2022-09-03T06:43:39.286Z,21.96
2022-09-03T06:44:39.282Z,22.22
2022-09-03T06:45:39.657Z,22.31
2022-09-03T06:46:39.256Z,22.43
2022-09-03T06:47:39.293Z,22.20
2022-09-03T06:48:39.233Z,21.74
2022-09-03T06:49:39.242Z,21.64
2022-09-03T06:50:39.209Z,21.65
2022-09-03T06:51:39.208Z,21.67
2022-09-03T06:52:39.187Z,20.89
2022-09-03T06:53:39.198Z,20.69
2022-09-03T06:54:39.178Z,21.17
2022-09-03T06:55:39.159Z,21.69
2022-09-03T06:56:40.785Z,22.09
2022-09-03T06:57:46.885Z,22.45
2022-09-03T06:58:40.290Z,22.77
2022-09-03T06:59:39.268Z,22.97
2022-09-03T07:00:39.308Z,22.39
2022-09-03T07:01:39.477Z,21.80
2022-09-03T07:02:42.838Z,21.80
2022-09-03T07:03:40.095Z,21.62
2022-09-03T07:04:39.079Z,21.77
2022-09-03T07:05:39.051Z,22.14
2022-09-03T07:06:39.054Z,22.25
2022-09-03T07:07:39.052Z,22.49
2022-09-03T07:08:39.056Z,22.79
2022-09-03T07:09:39.005Z,23.04
2022-09-03T07:10:38.990Z,23.48
2022-09-03T07:11:38.976Z,23.61
2022-09-03T07:12:38.969Z,23.87
2022-09-03T07:13:38.994Z,24.05
2022-09-03T07:14:38.946Z,24.42
2022-09-03T07:15:38.936Z,24.46
2022-09-03T07:16:38.966Z,24.53
2022-09-03T07:17:38.915Z,24.49
2022-09-03T07:18:38.916Z,24.32
2022-09-03T07:19:38.909Z,24.42
2022-09-03T07:20:38.877Z,23.87
2022-09-03T07:21:38.871Z,23.00
2022-09-03T07:22:38.878Z,22.14
2022-09-03T07:23:38.844Z,20.88
2022-09-03T07:24:38.852Z,20.48
2022-09-03T07:25:38.862Z,20.70
2022-09-03T07:26:38.810Z,21.01
2022-09-03T07:27:38.798Z,21.38
2022-09-03T07:28:38.786Z,21.61
2022-09-03T07:29:38.798Z,21.44
2022-09-03T07:30:38.777Z,21.42
2022-09-03T07:31:38.805Z,21.62
2022-09-03T07:32:38.742Z,21.86
2022-09-03T07:33:41.556Z,21.74
2022-09-03T07:34:38.743Z,21.74
2022-09-03T07:35:38.711Z,21.37
2022-09-03T07:36:38.699Z,20.70
2022-09-03T07:37:38.706Z,20.59
2022-09-03T07:38:38.673Z,20.76
2022-09-03T07:39:38.734Z,20.87
2022-09-03T07:40:38.650Z,21.10
2022-09-03T07:41:38.641Z,21.10
2022-09-03T07:42:38.658Z,20.85
2022-09-03T07:43:38.642Z,20.20
2022-09-03T07:44:38.628Z,20.17
2022-09-03T07:45:38.603Z,20.06
2022-09-03T07:46:38.669Z,20.28
2022-09-03T07:47:38.574Z,20.29
2022-09-03T07:48:38.562Z,20.32
2022-09-03T07:49:38.593Z,19.69
2022-09-03T07:50:38.564Z,19.50
2022-09-03T07:51:38.533Z,19.47
2022-09-03T07:52:38.538Z,19.62
2022-09-03T07:53:38.513Z,19.58
2022-09-03T07:54:38.515Z,19.10
2022-09-03T07:55:38.498Z,18.65
2022-09-03T07:56:38.469Z,18.41
2022-09-03T07:57:38.480Z,18.29
2022-09-03T07:58:38.449Z,18.17
2022-09-03T07:59:38.437Z,17.99
2022-09-03T08:00:38.528Z,17.68
2022-09-03T08:01:41.347Z,17.55
2022-09-03T08:02:39.627Z,17.38
2022-09-03T08:03:38.420Z,17.44
2022-09-03T08:04:38.378Z,17.70
2022-09-03T08:05:38.369Z,17.70
2022-09-03T08:06:38.381Z,17.66
2022-09-03T08:07:38.387Z,17.68
2022-09-03T08:08:38.334Z,17.78
2022-09-03T08:09:38.326Z,17.97
2022-09-03T08:10:38.323Z,18.23
2022-09-03T08:11:38.319Z,18.39
2022-09-03T08:12:38.290Z,18.63
2022-09-03T08:13:38.312Z,18.85
2022-09-03T08:14:38.266Z,19.06
2022-09-03T08:15:38.257Z,18.63
2022-09-03T08:16:38.313Z,18.37
2022-09-03T08:17:38.234Z,18.36
2022-09-03T08:18:38.248Z,18.39
2022-09-03T08:19:38.245Z,18.52
2022-09-03T08:20:38.199Z,18.54
2022-09-03T08:21:38.187Z,18.47
2022-09-03T08:22:38.180Z,18.14
2022-09-03T08:23:38.171Z,17.86
2022-09-03T08:24:38.177Z,17.74
2022-09-03T08:25:38.177Z,17.90
2022-09-03T08:26:38.132Z,17.95
2022-09-03T08:27:38.141Z,18.00
2022-09-03T08:28:38.109Z,18.05
2022-09-03T08:29:38.125Z,18.00
2022-09-03T08:30:38.087Z,18.00
2022-09-03T08:31:38.136Z,18.03
2022-09-03T08:32:38.073Z,18.11
2022-09-03T08:33:38.051Z,18.14
2022-09-03T08:34:38.071Z,18.25
2022-09-03T08:35:38.030Z,18.37
2022-09-03T08:36:38.019Z,18.57
2022-09-03T08:37:38.018Z,18.65
2022-09-03T08:38:37.998Z,18.69
2022-09-03T08:39:38.038Z,18.82
2022-09-03T08:40:37.993Z,18.94
2022-09-03T08:41:37.960Z,19.13
2022-09-03T08:42:37.975Z,19.31
2022-09-03T08:43:37.969Z,19.18
2022-09-03T08:44:37.929Z,19.13
2022-09-03T08:45:37.911Z,18.98
2022-09-03T08:46:37.961Z,18.55
2022-09-03T08:47:37.889Z,18.50
2022-09-03T08:48:37.904Z,18.65
2022-09-03T08:49:37.891Z,18.25
2022-09-03T08:50:37.878Z,18.21
2022-09-03T08:51:37.852Z,18.27
2022-09-03T08:52:37.856Z,18.45
2022-09-03T08:53:37.824Z,18.51
2022-09-03T08:54:37.851Z,18.65
2022-09-03T08:55:37.815Z,18.70
2022-09-03T08:56:37.792Z,18.69
2022-09-03T08:57:37.776Z,18.52
2022-09-03T08:58:37.765Z,18.45
2022-09-03T08:59:37.772Z,18.51
2022-09-03T09:00:37.753Z,18.63
2022-09-03T09:01:37.820Z,18.84
2022-09-03T09:02:37.903Z,19.04
2022-09-03T09:03:37.728Z,19.22
2022-09-03T09:04:37.697Z,19.22
2022-09-03T09:05:37.687Z,19.29
2022-09-03T09:06:38.093Z,19.29
2022-09-03T09:07:37.675Z,19.40
2022-09-03T09:08:37.766Z,19.32
2022-09-03T09:09:37.638Z,19.37
2022-09-03T09:10:40.532Z,19.10
2022-09-03T09:11:37.615Z,19.13
2022-09-03T09:12:42.779Z,19.25
2022-09-03T09:13:38.629Z,19.10
2022-09-03T09:14:37.607Z,19.11
2022-09-03T09:15:37.667Z,19.10
2022-09-03T09:16:37.562Z,19.26
2022-09-03T09:17:37.551Z,19.37
2022-09-03T09:18:37.538Z,19.29
2022-09-03T09:19:37.568Z,19.23
2022-09-03T09:20:37.538Z,19.26
2022-09-03T09:21:37.503Z,19.13
2022-09-03T09:22:37.497Z,18.80
2022-09-03T09:23:37.480Z,18.84
2022-09-03T09:24:37.472Z,18.98
2022-09-03T09:25:37.506Z,19.22
2022-09-03T09:26:37.468Z,19.31
2022-09-03T09:27:37.438Z,19.32
2022-09-03T09:28:37.425Z,19.46
2022-09-03T09:29:37.414Z,18.95
2022-09-03T09:30:37.425Z,18.82
2022-09-03T09:31:37.492Z,19.00
2022-09-03T09:32:37.387Z,19.21
2022-09-03T09:33:37.367Z,19.36
2022-09-03T09:34:37.378Z,19.44
2022-09-03T09:35:37.343Z,19.50
2022-09-03T09:36:37.337Z,19.54
2022-09-03T09:37:37.343Z,19.46
2022-09-03T09:38:37.311Z,19.61
2022-09-03T09:39:37.360Z,19.50
2022-09-03T09:40:40.467Z,19.66
2022-09-03T09:41:38.279Z,19.83
2022-09-03T09:42:37.269Z,19.99
2022-09-03T09:43:37.286Z,19.96
2022-09-03T09:44:37.245Z,20.06
2022-09-03T09:45:37.256Z,20.18
2022-09-03T09:46:37.402Z,20.33
2022-09-03T09:47:37.209Z,20.14
2022-09-03T09:48:37.220Z,20.10
2022-09-03T09:49:37.210Z,19.91
2022-09-03T09:50:37.198Z,19.44
2022-09-03T09:51:37.185Z,19.22
2022-09-03T09:52:37.177Z,19.02
2022-09-03T09:53:37.139Z,18.85
2022-09-03T09:54:37.128Z,18.92
2022-09-03T09:55:37.133Z,19.11
2022-09-03T09:56:37.136Z,19.25
2022-09-03T09:57:37.093Z,19.48
2022-09-03T09:58:37.088Z,19.51
2022-09-03T09:59:37.092Z,19.84
2022-09-03T10:00:37.083Z,19.99
2022-09-03T10:01:37.170Z,20.01
2022-09-03T10:02:37.060Z,20.08
2022-09-03T10:03:37.045Z,20.13
2022-09-03T10:04:37.014Z,20.08
2022-09-03T10:05:37.004Z,19.91
2022-09-03T10:06:36.996Z,19.88
2022-09-03T10:07:37.017Z,20.01
2022-09-03T10:08:36.998Z,20.06
2022-09-03T10:09:36.957Z,20.24
2022-09-03T10:10:36.946Z,20.42
2022-09-03T10:11:36.958Z,20.51
2022-09-03T10:12:36.925Z,20.62
2022-09-03T10:13:36.950Z,20.38
2022-09-03T10:14:36.928Z,20.24
2022-09-03T10:15:36.973Z,20.18
2022-09-03T10:16:36.881Z,20.31
2022-09-03T10:17:37.595Z,20.20
2022-09-03T10:18:36.864Z,20.32
2022-09-03T10:19:36.859Z,20.42
2022-09-03T10:20:36.854Z,20.42
2022-09-03T10:21:36.826Z,20.54
2022-09-03T10:22:36.831Z,20.70
2022-09-03T10:23:36.801Z,20.70
2022-09-03T10:24:36.811Z,20.70
2022-09-03T10:25:36.807Z,20.89
2022-09-03T10:26:36.764Z,20.99
2022-09-03T10:27:36.753Z,21.04
2022-09-03T10:28:36.764Z,20.79
2022-09-03T10:29:36.734Z,20.48
2022-09-03T10:30:36.722Z,20.43
2022-09-03T10:31:36.929Z,20.29
2022-09-03T10:32:39.023Z,20.11
2022-09-03T10:33:36.691Z,20.17
2022-09-03T10:34:36.676Z,20.35
2022-09-03T10:35:36.663Z,20.54
2022-09-03T10:36:36.651Z,20.69
2022-09-03T10:37:36.681Z,20.69
2022-09-03T10:38:36.645Z,20.85
2022-09-03T10:39:42.726Z,21.03
2022-09-03T10:40:37.605Z,21.13
2022-09-03T10:41:36.595Z,20.92
2022-09-03T10:42:36.607Z,20.72
2022-09-03T10:43:36.603Z,20.62
2022-09-03T10:44:36.564Z,20.89
2022-09-03T10:45:38.566Z,21.07
2022-09-03T10:46:36.575Z,20.99
2022-09-03T10:47:38.214Z,21.21
2022-09-03T10:48:36.533Z,21.31
2022-09-03T10:49:36.505Z,21.42
2022-09-03T10:50:36.497Z,21.67
2022-09-03T10:51:36.504Z,21.65
2022-09-03T10:52:36.471Z,21.46
2022-09-03T10:53:36.460Z,21.50
2022-09-03T10:54:36.483Z,21.65
2022-09-03T10:55:36.437Z,21.35
2022-09-03T10:56:36.425Z,21.28
2022-09-03T10:57:36.415Z,21.34
2022-09-03T10:58:36.443Z,21.28
2022-09-03T10:59:36.395Z,21.35
2022-09-03T11:00:36.397Z,21.37
2022-09-03T11:01:36.499Z,21.32
2022-09-03T11:02:36.437Z,21.25
2022-09-03T11:03:36.369Z,21.25
2022-09-03T11:04:37.956Z,21.35
2022-09-03T11:05:36.327Z,21.31
2022-09-03T11:06:36.336Z,21.38
2022-09-03T11:07:36.303Z,21.59
2022-09-03T11:08:36.316Z,21.90
2022-09-03T11:09:36.282Z,21.49
2022-09-03T11:10:36.271Z,21.25
2022-09-03T11:11:36.258Z,20.61
2022-09-03T11:12:36.279Z,20.41
2022-09-03T11:13:37.062Z,20.57
2022-09-03T11:14:36.226Z,20.61
2022-09-03T11:15:36.284Z,20.84
2022-09-03T11:16:36.225Z,20.82
2022-09-03T11:17:36.190Z,20.73
2022-09-03T11:18:36.217Z,20.92
2022-09-03T11:19:36.190Z,20.99
2022-09-03T11:20:36.165Z,21.13
2022-09-03T11:21:36.145Z,21.40
2022-09-03T11:22:36.150Z,21.59
2022-09-03T11:23:36.127Z,21.86
2022-09-03T11:24:36.165Z,22.05
2022-09-03T11:25:36.099Z,21.99
2022-09-03T11:26:36.093Z,22.10
2022-09-03T11:27:36.079Z,22.27
2022-09-03T11:28:36.064Z,22.47
2022-09-03T11:29:36.073Z,22.61
2022-09-03T11:30:36.092Z,22.73
2022-09-03T11:31:36.034Z,22.15
2022-09-03T11:32:36.024Z,22.07
2022-09-03T11:33:36.035Z,22.05
2022-09-03T11:34:36.028Z,22.39
2022-09-03T11:35:35.988Z,22.58
2022-09-03T11:36:36.026Z,22.77
2022-09-03T11:37:35.963Z,22.79
2022-09-03T11:38:35.961Z,22.82
2022-09-03T11:39:36.015Z,23.00
2022-09-03T11:40:35.933Z,23.15
2022-09-03T11:41:35.921Z,22.86
2022-09-03T11:42:35.934Z,21.96
2022-09-03T11:43:35.896Z,21.74
2022-09-03T11:44:35.909Z,21.46
2022-09-03T11:45:35.877Z,21.44
2022-09-03T11:46:35.964Z,21.61
2022-09-03T11:47:35.858Z,21.82
2022-09-03T11:48:35.880Z,22.06
2022-09-03T11:49:35.829Z,22.24
2022-09-03T11:51:35.819Z,22.55
2022-09-03T11:52:35.801Z,22.77
2022-09-03T11:53:35.811Z,23.10
2022-09-03T11:54:35.800Z,23.22
2022-09-03T11:55:43.645Z,22.62
2022-09-03T11:56:36.755Z,22.43
2022-09-03T11:57:35.738Z,22.45
2022-09-03T11:58:35.735Z,22.67
2022-09-03T11:59:35.732Z,22.92
2022-09-03T12:00:35.743Z,23.10
2022-09-03T12:01:35.692Z,22.91
2022-09-03T12:02:35.704Z,23.02
2022-09-03T12:03:35.672Z,23.13
2022-09-03T12:04:35.722Z,22.94
2022-09-03T12:05:35.670Z,21.88
2022-09-03T12:06:35.658Z,21.28
2022-09-03T12:07:35.672Z,20.76
2022-09-03T12:08:35.640Z,20.47
2022-09-03T12:09:35.632Z,20.72
2022-09-03T12:10:35.610Z,20.89
2022-09-03T12:11:35.583Z,21.10
2022-09-03T12:12:35.609Z,21.31
2022-09-03T12:13:35.559Z,21.65
2022-09-03T12:14:35.548Z,21.84
2022-09-03T12:15:35.614Z,22.14
2022-09-03T12:16:35.527Z,22.45
2022-09-03T12:17:35.514Z,22.54
2022-09-03T12:18:35.520Z,22.85
2022-09-03T12:19:35.493Z,22.90
2022-09-03T12:20:36.109Z,22.80
2022-09-03T12:21:35.469Z,21.94
2022-09-03T12:22:35.461Z,21.47
2022-09-03T12:23:35.447Z,20.94
2022-09-03T12:24:38.190Z,20.88
2022-09-03T12:25:35.459Z,21.06
2022-09-03T12:26:35.412Z,21.09
2022-09-03T12:27:35.401Z,21.25
2022-09-03T12:28:35.390Z,21.50
2022-09-03T12:29:35.398Z,21.86
2022-09-03T12:30:35.493Z,21.98
2022-09-03T12:31:36.661Z,21.77
2022-09-03T12:32:43.602Z,21.94
2022-09-03T12:33:35.483Z,22.17
2022-09-03T12:34:35.434Z,22.45
2022-09-03T12:36:36.537Z,22.88
2022-09-03T12:39:00.722Z,23.12
2022-09-03T12:41:22.224Z,23.04
2022-09-03T12:41:36.326Z,22.91
2022-09-03T12:42:35.251Z,22.10
2022-09-03T12:43:39.459Z,22.10
2022-09-03T12:44:42.953Z,21.92
2022-09-03T12:46:36.371Z,21.16
2022-09-03T12:47:36.935Z,21.21
2022-09-03T12:48:35.347Z,21.24
2022-09-03T12:49:35.174Z,21.16
2022-09-03T12:50:35.143Z,21.31
2022-09-03T12:51:55.789Z,21.61
2022-09-03T12:52:36.122Z,21.94
2022-09-03T12:53:35.113Z,22.22
2022-09-03T12:54:35.148Z,22.36
2022-09-03T12:55:35.083Z,22.67
2022-09-03T12:56:35.081Z,22.51
2022-09-03T12:57:42.649Z,22.54
2022-09-03T12:58:35.065Z,22.65
2022-09-03T12:59:35.047Z,22.64
2022-09-03T13:00:35.057Z,22.55
2022-09-03T13:01:35.118Z,22.67
2022-09-03T13:02:35.017Z,22.82
2022-09-03T13:03:35.020Z,22.86
2022-09-03T13:04:35.057Z,23.16
2022-09-03T13:05:34.982Z,23.31
2022-09-03T13:06:34.964Z,23.19
2022-09-03T13:07:34.954Z,22.91
2022-09-03T13:08:34.946Z,22.28
2022-09-03T13:09:34.957Z,22.07